Time;durP1;ratioP1;P1;durP2;ratioP2;P2;SDS_P1;SDS_P2;PMS_P1;PMS_P2;Temp;Humidity;BMP_temperature;BMP_pressure;BME280_temperature;BME280_humidity;BME280_pressure;Samples;Min_cycle;Max_cycle;Signal;HPM_P1;HPM_P2
2021/11/28 00:00:11;;;;;;;14.83;6.83;;;;;;;9.51;88.51;99892.55;1695405;84;20936;-60
2021/11/28 00:02:38;;;;;;;20.00;6.00;;;;;;;9.55;88.51;99902.17;1705020;83;21043;-60
2021/11/28 00:05:07;;;;;;;12.90;6.10;;;;;;;9.54;88.20;99895.97;1707457;83;21023;-59
2021/11/28 00:10:20;;;;;;;10.50;5.45;;;;;;;9.54;87.89;99880.37;1710593;83;21791;-60
2021/11/28 00:12:48;;;;;;;10.63;5.53;;;;;;;9.50;87.86;99877.44;1709569;83;21035;-60
2021/11/28 00:15:18;;;;;;;8.30;5.60;;;;;;;9.50;87.81;99880.11;1706843;83;21052;-60
2021/11/28 00:17:45;;;;;;;8.25;5.47;;;;;;;9.44;87.55;99881.25;1709951;83;21080;-61
2021/11/28 00:20:15;;;;;;;11.25;5.55;;;;;;;9.35;87.38;99877.17;1710871;83;21083;-61
2021/11/28 00:22:43;;;;;;;11.22;6.15;;;;;;;9.26;87.54;99877.58;1704557;83;21846;-61
2021/11/28 00:25:13;;;;;;;10.30;5.17;;;;;;;9.20;87.78;99872.52;1705954;83;20955;-60
2021/11/28 00:27:41;;;;;;;10.13;5.60;;;;;;;9.13;88.17;99863.39;1710014;83;21079;-60
2021/11/28 00:30:14;;;;;;;9.55;5.53;;;;;;;9.09;88.59;99868.48;1708780;83;20954;-60
2021/11/28 00:32:41;;;;;;;9.65;5.42;;;;;;;9.15;89.08;99864.19;1710153;83;21056;-60
2021/11/28 00:35:09;;;;;;;9.75;6.37;;;;;;;9.21;88.98;99871.57;1709582;83;21131;-60
2021/11/28 00:37:38;;;;;;;12.40;5.40;;;;;;;9.24;89.06;99870.95;1711789;83;21015;-60
2021/11/28 00:40:06;;;;;;;9.45;5.78;;;;;;;9.29;89.09;99875.66;1708318;83;21010;-60
2021/11/28 00:42:33;;;;;;;11.22;5.72;;;;;;;9.30;88.83;99872.50;1708310;83;22583;-60
2021/11/28 00:45:01;;;;;;;10.18;6.22;;;;;;;9.29;88.85;99861.39;1711209;83;21066;-65
2021/11/28 00:47:28;;;;;;;8.88;6.00;;;;;;;9.26;88.65;99870.41;1710348;83;21129;-64
2021/11/28 00:52:33;;;;;;;10.53;6.12;;;;;;;9.17;88.81;99873.05;1705087;83;21039;-60
2021/11/28 00:55:00;;;;;;;8.85;6.35;;;;;;;9.15;88.84;99880.72;1706006;83;21070;-59
2021/11/28 00:57:27;;;;;;;10.82;5.97;;;;;;;9.09;89.21;99872.48;1710821;83;21135;-60
2021/11/28 00:59:55;;;;;;;12.93;5.90;;;;;;;9.09;89.47;99864.95;1709044;83;21142;-61
2021/11/28 01:02:22;;;;;;;11.75;5.70;;;;;;;9.10;89.69;99868.88;1701386;83;21015;-60
2021/11/28 01:04:49;;;;;;;10.72;5.65;;;;;;;9.12;89.95;99875.03;1701285;83;21074;-60
2021/11/28 01:07:16;;;;;;;12.82;6.30;;;;;;;9.23;90.05;99878.58;1703567;83;21560;-61
2021/11/28 01:09:43;;;;;;;10.23;5.85;;;;;;;9.28;89.88;99873.03;1712509;83;21043;-60
2021/11/28 01:12:10;;;;;;;13.48;6.33;;;;;;;9.34;89.84;99881.27;1706997;83;21744;-61
2021/11/28 01:14:37;;;;;;;11.00;6.40;;;;;;;9.37;89.49;99875.78;1704006;83;21020;-61
2021/11/28 01:17:05;;;;;;;11.18;6.40;;;;;;;9.34;89.37;99874.09;1712581;83;21091;-61
2021/11/28 01:19:32;;;;;;;12.05;6.20;;;;;;;9.35;89.60;99874.48;1711626;83;20996;-60
2021/11/28 01:22:04;;;;;;;12.37;6.90;;;;;;;9.40;89.41;99876.97;1711522;83;21063;-60
2021/11/28 01:24:30;;;;;;;12.73;6.40;;;;;;;9.41;89.27;99870.69;1702860;83;21108;-61
2021/11/28 01:26:59;;;;;;;10.30;6.42;;;;;;;9.45;89.37;99875.84;1707819;83;21035;-61
2021/11/28 01:29:26;;;;;;;10.38;5.60;;;;;;;9.49;89.28;99877.89;1700970;83;21500;-60
2021/11/28 01:31:53;;;;;;;13.62;6.08;;;;;;;9.50;89.11;99872.94;1706880;83;20986;-60
2021/11/28 01:34:20;;;;;;;8.88;5.47;;;;;;;9.49;88.92;99875.70;1708671;83;21009;-60
2021/11/28 01:36:47;;;;;;;12.03;5.70;;;;;;;9.44;88.80;99866.08;1711723;83;21144;-60
2021/11/28 01:39:14;;;;;;;15.23;5.97;;;;;;;9.40;88.79;99867.16;1708129;83;21096;-60
2021/11/28 01:41:41;;;;;;;12.60;5.90;;;;;;;9.38;88.84;99866.33;1704353;83;21049;-59
2021/11/28 01:44:08;;;;;;;13.30;6.00;;;;;;;9.37;89.06;99867.75;1645631;83;21091;-61
2021/11/28 01:46:34;;;;;;;15.75;6.17;;;;;;;9.36;89.17;99868.20;1712206;83;21087;-59
2021/11/28 01:49:01;;;;;;;12.37;6.62;;;;;;;9.34;89.10;99866.06;1708702;83;21654;-66
2021/11/28 01:51:29;;;;;;;11.10;5.67;;;;;;;9.32;89.17;99873.30;1703571;83;21560;-65
2021/11/28 01:53:56;;;;;;;10.23;5.95;;;;;;;9.30;89.27;99872.05;1706932;83;21083;-65
2021/11/28 01:56:23;;;;;;;11.20;6.58;;;;;;;9.31;89.36;99871.11;1709350;83;21082;-64
2021/11/28 01:58:50;;;;;;;10.78;6.25;;;;;;;9.32;89.37;99869.28;1704298;83;21058;-66
2021/11/28 02:01:19;;;;;;;12.70;6.50;;;;;;;9.34;89.53;99867.41;1711566;83;21980;-65
2021/11/28 02:03:46;;;;;;;12.82;6.55;;;;;;;9.38;89.39;99864.98;1694712;83;21444;-64
2021/11/28 02:06:15;;;;;;;12.28;6.33;;;;;;;9.39;89.18;99861.86;1693044;83;21633;-64
2021/11/28 02:08:42;;;;;;;14.18;6.50;;;;;;;9.39;89.12;99857.36;1681166;85;21049;-64
2021/11/28 02:11:10;;;;;;;11.95;6.22;;;;;;;9.41;89.10;99850.63;1689831;83;21378;-66
2021/11/28 02:13:37;;;;;;;10.18;6.58;;;;;;;9.45;89.10;99854.89;1689748;84;21139;-66
2021/11/28 02:16:08;;;;;;;12.05;6.78;;;;;;;9.48;88.98;99848.55;1716012;82;21031;-66
2021/11/28 02:18:37;;;;;;;12.35;6.45;;;;;;;9.50;88.92;99852.02;1707379;81;21262;-61
2021/11/28 02:21:05;;;;;;;9.58;6.15;;;;;;;9.55;88.91;99845.98;1690588;84;21051;-61
2021/11/28 02:23:34;;;;;;;13.68;6.03;;;;;;;9.57;88.64;99843.65;1690330;84;21079;-60
2021/11/28 02:26:05;;;;;;;10.43;6.30;;;;;;;9.64;88.65;99833.54;1690874;83;21478;-59
2021/11/28 02:28:35;;;;;;;12.70;6.40;;;;;;;9.74;88.24;99839.34;1680889;84;21585;-61
2021/11/28 02:31:02;;;;;;;13.18;7.10;;;;;;;9.78;87.98;99838.70;1681122;83;21506;-61
2021/11/28 02:33:30;;;;;;;12.47;5.92;;;;;;;9.80;87.52;99843.52;1658166;85;21154;-60
2021/11/28 02:35:57;;;;;;;10.58;6.72;;;;;;;9.77;87.23;99855.25;1710303;82;21474;-60
2021/11/28 02:38:24;;;;;;;11.83;6.60;;;;;;;9.74;87.20;99845.55;1714837;82;21785;-60
2021/11/28 02:40:51;;;;;;;11.65;5.83;;;;;;;9.78;87.21;99837.37;1713703;82;21140;-60
2021/11/28 02:43:21;;;;;;;13.32;6.65;;;;;;;9.82;86.89;99837.62;1709772;82;21045;-61
2021/11/28 02:45:49;;;;;;;12.05;6.42;;;;;;;9.84;86.70;99839.78;1710767;82;21023;-60
2021/11/28 02:48:16;;;;;;;9.63;6.05;;;;;;;9.83;86.63;99842.03;1713482;82;21021;-60
2021/11/28 02:50:43;;;;;;;10.40;6.40;;;;;;;9.88;86.58;99839.55;1712938;82;21044;-60
2021/11/28 02:53:11;;;;;;;12.20;6.17;;;;;;;9.95;86.20;99832.09;1708878;83;20988;-60
2021/11/28 02:55:48;;;;;;;9.50;5.75;;;;;;;10.01;85.82;99829.61;1716058;82;21481;-60
2021/11/28 02:58:19;;;;;;;8.68;5.80;;;;;;;10.12;85.28;99831.78;1687381;82;21001;-61
2021/11/28 03:00:57;;;;;;;12.10;6.75;;;;;;;10.18;84.72;99830.13;1709540;82;21598;-61
2021/11/28 03:03:25;;;;;;;13.10;7.10;;;;;;;10.24;84.23;99836.53;1721652;83;21778;-60
2021/11/28 03:05:52;;;;;;;12.47;6.60;;;;;;;10.26;83.73;99831.95;1728410;81;21523;-60
2021/11/28 03:08:21;;;;;;;11.25;7.17;;;;;;;10.20;83.65;99829.58;1727350;82;21009;-59
2021/11/28 03:10:53;;;;;;;11.03;7.17;;;;;;;10.12;83.53;99837.13;1720387;81;21047;-61
2021/11/28 03:13:33;;;;;;;14.75;6.50;;;;;;;9.99;83.83;99836.36;1728177;81;21095;-59
2021/11/28 03:16:08;;;;;;;12.90;6.58;;;;;;;9.85;84.30;99837.50;1725573;81;21129;-61
2021/11/28 03:18:35;;;;;;;12.33;6.45;;;;;;;9.70;85.15;99828.35;1727802;83;21091;-60
2021/11/28 03:21:09;;;;;;;12.95;5.78;;;;;;;9.60;86.11;99818.53;1726685;83;21070;-60
2021/11/28 03:23:37;;;;;;;;;;;;;;;9.53;87.28;99815.75;1727265;83;21067;-61
2021/11/28 03:26:17;;;;;;;11.05;6.60;;;;;;;9.48;88.13;99812.42;1730460;81;20149;-61
2021/11/28 03:28:48;;;;;;;15.18;6.85;;;;;;;9.41;88.42;99814.50;1722954;83;21520;-60
2021/11/28 03:31:16;;;;;;;9.90;5.87;;;;;;;9.44;88.84;99819.25;1727466;81;21539;-60
2021/11/28 03:34:01;;;;;;;12.45;6.67;;;;;;;9.48;88.84;99813.77;1727449;82;21019;-61
2021/11/28 03:36:31;;;;;;;12.82;6.83;;;;;;;9.51;88.91;99836.36;1724751;81;21048;-60
2021/11/28 03:38:59;;;;;;;17.65;6.70;;;;;;;9.51;88.67;99825.66;1728616;81;21054;-61
2021/11/28 03:41:27;;;;;;;12.00;6.28;;;;;;;9.51;89.13;99816.30;1727647;81;21211;-60
2021/11/28 03:43:56;;;;;;;10.95;6.25;;;;;;;9.54;89.61;99817.48;1725593;81;21031;-62
2021/11/28 03:46:24;;;;;;;128.02;12.53;;;;;;;9.54;90.01;99809.01;1725290;81;21119;-61
2021/11/28 03:48:53;;;;;;;28.45;6.30;;;;;;;9.55;90.25;99801.83;1728502;82;21559;-62
2021/11/28 03:51:22;;;;;;;14.78;6.70;;;;;;;9.51;90.80;99807.81;1726802;82;20978;-60
2021/11/28 03:53:50;;;;;;;14.63;6.05;;;;;;;9.52;91.51;99801.98;1725393;83;20972;-60
2021/11/28 03:56:17;;;;;;;14.58;5.60;;;;;;;9.51;92.65;99798.45;1725655;81;21055;-65
2021/11/28 03:58:47;;;;;;;13.03;5.33;;;;;;;9.55;93.85;99805.84;1725248;82;21075;-65
2021/11/28 04:01:15;;;;;;;14.40;8.45;;;;;;;9.58;94.65;99793.20;1726734;81;21637;-65
2021/11/28 04:03:43;;;;;;;9.50;5.87;;;;;;;9.60;95.49;99802.02;1717243;82;21572;-66
2021/11/28 04:06:13;;;;;;;9.85;4.95;;;;;;;9.67;96.48;99799.94;1703522;83;21173;-65
2021/11/28 04:08:40;;;;;;;14.50;5.10;;;;;;;9.73;96.96;99798.30;1711933;82;21084;-65
2021/11/28 04:11:10;;;;;;;9.20;5.00;;;;;;;9.79;97.54;99792.26;1712069;82;21065;-65
2021/11/28 04:13:37;;;;;;;10.80;4.90;;;;;;;9.85;98.01;99783.47;1708679;83;21056;-66
2021/11/28 04:16:04;;;;;;;12.07;5.03;;;;;;;9.89;98.05;99783.72;1715380;82;21086;-65
2021/11/28 04:18:33;;;;;;;7.65;4.60;;;;;;;9.93;98.30;99787.13;1707259;83;21317;-61
2021/11/28 04:21:01;;;;;;;12.73;4.95;;;;;;;10.00;98.49;99784.55;1683506;82;21122;-60
2021/11/28 04:23:28;;;;;;;13.78;5.60;;;;;;;10.07;98.50;99788.28;1709058;83;21075;-65
2021/11/28 04:25:54;;;;;;;11.68;4.90;;;;;;;10.13;98.79;99779.95;1706367;82;21119;-65
2021/11/28 04:28:23;;;;;;;11.68;5.55;;;;;;;10.23;98.81;99787.91;1715365;83;21079;-64
2021/11/28 04:30:51;;;;;;;14.38;5.62;;;;;;;10.28;98.79;99791.26;1708057;83;21822;-61
2021/11/28 04:33:18;;;;;;;12.45;5.25;;;;;;;10.37;99.43;99803.79;1713000;82;21051;-60
2021/11/28 04:35:47;;;;;;;17.70;5.42;;;;;;;10.43;100.00;99794.14;1711976;83;21064;-60
2021/11/28 04:38:15;;;;;;;13.68;5.58;;;;;;;10.45;100.00;99775.70;1716002;82;21060;-60
2021/11/28 04:40:43;;;;;;;13.68;6.08;;;;;;;10.47;100.00;99780.97;1712857;82;21099;-61
2021/11/28 04:43:11;;;;;;;13.08;5.58;;;;;;;10.53;100.00;99773.10;1712846;83;21387;-60
2021/11/28 04:45:38;;;;;;;11.80;5.60;;;;;;;10.55;100.00;99778.80;1713992;83;21560;-64
2021/11/28 04:48:06;;;;;;;15.88;6.15;;;;;;;10.58;100.00;99778.63;1682399;83;21099;-60
2021/11/28 04:50:34;;;;;;;14.28;4.95;;;;;;;10.66;100.00;99776.03;1713478;82;21806;-60
2021/11/28 04:53:03;;;;;;;14.13;5.12;;;;;;;10.68;100.00;99770.11;1712300;83;21044;-60
2021/11/28 04:55:30;;;;;;;14.78;5.33;;;;;;;10.71;100.00;99772.63;1714026;83;21599;-65
2021/11/28 04:57:57;;;;;;;14.03;5.33;;;;;;;10.78;100.00;99776.75;1709679;83;21104;-65
2021/11/28 05:00:26;;;;;;;14.63;5.08;;;;;;;10.82;100.00;99782.34;1707269;82;21057;-65
2021/11/28 05:02:56;;;;;;;21.05;5.37;;;;;;;10.82;100.00;99787.70;1716170;82;21100;-63
2021/11/28 05:05:24;;;;;;;14.78;5.25;;;;;;;10.84;100.00;99788.49;1716035;82;21016;-65
2021/11/28 05:07:53;;;;;;;13.80;5.58;;;;;;;10.87;100.00;99788.33;1713331;82;21059;-65
2021/11/28 05:10:20;;;;;;;20.95;5.97;;;;;;;10.91;100.00;99791.73;1713235;83;20998;-61
2021/11/28 05:12:49;;;;;;;18.07;5.92;;;;;;;10.89;100.00;99782.41;1704113;83;21074;-60
2021/11/28 05:15:18;;;;;;;15.75;5.25;;;;;;;10.95;100.00;99780.37;1709961;82;21520;-60
2021/11/28 05:17:47;;;;;;;15.95;4.80;;;;;;;11.01;100.00;99777.37;1699104;83;21575;-62
2021/11/28 05:20:14;;;;;;;17.00;5.60;;;;;;;11.09;100.00;99782.34;1711884;82;21760;-61
2021/11/28 05:22:43;;;;;;;14.25;5.50;;;;;;;11.17;100.00;99767.57;1711451;82;21036;-62
2021/11/28 05:25:10;;;;;;;16.37;4.72;;;;;;;11.28;100.00;99761.62;1715706;82;21056;-61
2021/11/28 05:27:37;;;;;;;13.03;4.75;;;;;;;11.36;100.00;99753.14;1716266;82;21441;-61
2021/11/28 05:30:06;;;;;;;13.43;4.45;;;;;;;11.48;100.00;99759.66;1714002;82;21052;-61
2021/11/28 05:32:36;;;;;;;11.12;4.65;;;;;;;11.56;100.00;99749.84;1706617;82;21129;-61
2021/11/28 05:35:21;;;;;;;13.40;4.72;;;;;;;11.63;100.00;99749.03;1710277;83;21060;-61
2021/11/28 05:37:57;;;;;;;13.28;4.87;;;;;;;11.67;100.00;99755.50;1691000;82;21648;-61
2021/11/28 05:40:26;;;;;;;12.78;4.50;;;;;;;11.74;100.00;99747.48;1714192;82;20994;-60
2021/11/28 05:42:54;;;;;;;12.47;4.92;;;;;;;11.79;100.00;99745.89;1702578;83;21087;-60
2021/11/28 05:45:23;;;;;;;15.13;4.60;;;;;;;11.86;100.00;99755.33;1713276;83;21509;-60
2021/11/28 05:47:56;;;;;;;16.82;6.08;;;;;;;11.94;100.00;99754.89;1710635;82;21118;-60
2021/11/28 05:50:30;;;;;;;11.15;5.25;;;;;;;12.00;100.00;99769.31;1714270;82;21053;-60
2021/11/28 05:52:58;;;;;;;11.68;4.97;;;;;;;12.10;100.00;99758.94;1708473;83;21505;-60
2021/11/28 05:55:25;;;;;;;12.05;4.78;;;;;;;12.17;100.00;99756.78;1704945;82;21037;-60
2021/11/28 05:57:54;;;;;;;7.45;4.05;;;;;;;12.23;100.00;99756.41;1710861;83;21157;-60
2021/11/28 06:00:21;;;;;;;15.93;5.67;;;;;;;12.30;100.00;99752.44;1713110;82;21100;-61
2021/11/28 06:02:56;;;;;;;16.45;5.03;;;;;;;12.34;100.00;99758.47;1710478;83;26674;-61
2021/11/28 06:05:41;;;;;;;12.78;4.75;;;;;;;12.41;100.00;99750.92;1711371;82;22157;-60
2021/11/28 06:08:26;;;;;;;11.63;4.92;;;;;;;12.47;100.00;99741.14;1712397;82;21056;-60
2021/11/28 06:10:55;;;;;;;15.93;5.78;;;;;;;12.52;100.00;99735.05;1711835;83;21685;-60
2021/11/28 06:13:23;;;;;;;14.70;5.35;;;;;;;12.58;100.00;99735.13;1709455;83;20961;-61
2021/11/28 06:15:52;;;;;;;17.65;5.42;;;;;;;12.63;100.00;99741.59;1706767;82;21181;-61
2021/11/28 06:18:37;;;;;;;16.10;5.90;;;;;;;12.69;100.00;99736.72;1708789;83;21084;-61
2021/11/28 06:21:08;;;;;;;17.87;5.92;;;;;;;12.75;100.00;99733.65;1690288;82;21411;-61
2021/11/28 06:23:36;;;;;;;14.15;5.58;;;;;;;12.80;100.00;99740.10;1710894;83;21134;-62
2021/11/28 06:26:05;;;;;;;16.07;6.03;;;;;;;12.82;100.00;99735.95;1716282;82;21078;-62
2021/11/28 06:28:33;;;;;;;14.07;5.42;;;;;;;12.86;100.00;99734.84;1713321;83;21387;-60
2021/11/28 06:31:01;;;;;;;15.43;5.83;;;;;;;12.92;100.00;99733.11;1714793;82;20949;-61
2021/11/28 06:33:39;;;;;;;15.13;5.65;;;;;;;12.97;100.00;99739.06;1706190;83;21037;-61
2021/11/28 06:36:17;;;;;;;16.07;5.67;;;;;;;13.02;100.00;99739.64;1674538;83;21467;-61
2021/11/28 06:38:44;;;;;;;13.55;5.50;;;;;;;13.12;100.00;99734.56;1714135;82;21044;-62
2021/11/28 06:41:29;;;;;;;16.00;5.65;;;;;;;13.21;100.00;99739.85;1712356;82;21059;-61
2021/11/28 06:43:56;;;;;;;14.00;5.80;;;;;;;13.28;100.00;99733.15;1707009;82;21518;-61
2021/11/28 06:46:23;;;;;;;13.62;5.47;;;;;;;13.34;100.00;99739.95;1711886;83;21107;-60
2021/11/28 06:48:51;;;;;;;12.10;5.42;;;;;;;13.42;100.00;99740.81;1708282;83;21981;-60
2021/11/28 06:51:20;;;;;;;12.55;5.25;;;;;;;13.49;100.00;99746.72;1694283;83;21055;-61
2021/11/28 06:53:47;;;;;;;13.93;5.78;;;;;;;13.54;100.00;99743.24;1713012;83;21032;-61
2021/11/28 06:56:32;;;;;;;13.70;6.05;;;;;;;13.61;100.00;99744.61;1712572;83;21079;-60
2021/11/28 06:59:02;;;;;;;11.25;5.22;;;;;;;13.67;100.00;99753.62;1714407;83;21028;-60
2021/11/28 07:01:30;;;;;;;18.85;5.17;;;;;;;13.74;100.00;99748.72;1714517;82;22328;-60
2021/11/28 07:03:58;;;;;;;16.55;5.62;;;;;;;13.81;100.00;99752.73;1700377;83;21135;-61
2021/11/28 07:06:39;;;;;;;17.92;5.60;;;;;;;13.87;100.00;99754.17;1704659;82;21028;-60
2021/11/28 07:09:06;;;;;;;16.87;5.37;;;;;;;13.90;100.00;99758.02;1715236;82;21056;-60
2021/11/28 07:11:33;;;;;;;17.07;5.55;;;;;;;13.96;100.00;99762.14;1715273;82;21520;-60
2021/11/28 07:14:02;;;;;;;13.40;4.97;;;;;;;14.04;100.00;99760.69;1710048;83;21538;-62
2021/11/28 07:16:29;;;;;;;12.98;5.75;;;;;;;14.10;100.00;99763.94;1711044;82;21066;-66
2021/11/28 07:18:56;;;;;;;17.15;5.87;;;;;;;14.14;100.00;99764.11;1714167;82;21059;-65
2021/11/28 07:21:32;;;;;;;11.73;5.15;;;;;;;14.15;100.00;99766.72;1672658;82;21134;-64
2021/11/28 07:23:59;;;;;;;17.75;5.47;;;;;;;14.16;100.00;99759.48;1710659;82;21497;-66
2021/11/28 07:26:26;;;;;;;17.10;5.55;;;;;;;14.15;100.00;99759.10;1714057;82;21141;-65
2021/11/28 07:28:54;;;;;;;14.87;6.17;;;;;;;14.16;100.00;99752.27;1707624;83;21032;-65
2021/11/28 07:31:22;;;;;;;13.83;5.30;;;;;;;14.19;100.00;99744.45;1706173;82;21495;-65
2021/11/28 07:34:03;;;;;;;18.27;6.35;;;;;;;14.23;100.00;99745.12;1700247;83;21435;-65
2021/11/28 07:36:35;;;;;;;18.50;5.92;;;;;;;14.30;100.00;99747.31;1714147;83;21059;-65
2021/11/28 07:39:07;;;;;;;16.70;5.80;;;;;;;14.37;100.00;99748.23;1714226;82;21056;-65
2021/11/28 07:41:35;;;;;;;18.55;5.12;;;;;;;14.42;100.00;99744.74;1714394;82;21059;-65
2021/11/28 07:44:21;;;;;;;15.85;6.08;;;;;;;14.42;100.00;99751.48;1712120;83;20970;-64
2021/11/28 07:46:59;;;;;;;18.98;5.80;;;;;;;14.44;100.00;99748.20;1676979;83;21021;-64
2021/11/28 07:49:28;;;;;;;19.12;6.00;;;;;;;14.49;100.00;99747.89;1713634;82;20925;-65
2021/11/28 07:51:56;;;;;;;16.02;5.10;;;;;;;14.51;100.00;99739.22;1711952;83;21121;-66
2021/11/28 07:54:23;;;;;;;17.92;5.62;;;;;;;14.53;100.00;99734.11;1708564;82;21605;-66
2021/11/28 07:56:50;;;;;;;17.27;5.62;;;;;;;14.57;100.00;99735.63;1715877;82;21520;-63
2021/11/28 07:59:37;;;;;;;17.55;6.35;;;;;;;14.60;100.00;99741.31;1709795;82;22240;-64
2021/11/28 08:02:05;;;;;;;16.07;5.92;;;;;;;14.60;100.00;99740.80;1713442;83;21067;-64
2021/11/28 08:04:46;;;;;;;21.48;6.00;;;;;;;14.60;99.76;99743.50;1707056;83;21877;-64
2021/11/28 08:07:31;;;;;;;21.07;6.72;;;;;;;14.58;99.50;99736.47;1705179;83;21318;-64
2021/11/28 08:10:15;;;;;;;17.67;6.10;;;;;;;14.56;99.44;99737.94;1700207;84;21001;-64
2021/11/28 08:12:42;;;;;;;21.57;6.17;;;;;;;14.55;99.34;99733.52;1702851;83;21182;-64
2021/11/28 08:15:15;;;;;;;23.90;6.70;;;;;;;14.56;99.19;99732.55;1698868;83;21050;-63
2021/11/28 08:17:39;;;;;;;18.57;6.35;;;;;;;14.57;98.99;99740.14;1706717;83;21143;-64
2021/11/28 08:20:07;;;;;;;24.43;6.72;;;;;;;14.58;99.02;99741.86;1702724;83;21506;-63
2021/11/28 08:22:37;;;;;;;19.02;6.28;;;;;;;14.61;99.02;99741.19;1701574;84;21099;-65
2021/11/28 08:25:06;;;;;;;26.20;6.50;;;;;;;14.65;98.79;99728.83;1703131;83;21529;-64
2021/11/28 08:27:34;;;;;;;23.87;6.50;;;;;;;14.68;98.41;99720.52;1706448;83;21099;-65
2021/11/28 08:30:06;;;;;;;19.87;6.12;;;;;;;14.66;98.54;99715.72;1705299;84;21497;-63
2021/11/28 08:32:50;;;;;;;18.87;6.30;;;;;;;14.66;98.51;99715.25;1703428;83;21035;-64
2021/11/28 08:35:37;;;;;;;20.55;5.65;;;;;;;14.65;98.56;99716.69;1628220;87;21635;-63
2021/11/28 08:38:04;;;;;;;22.42;6.30;;;;;;;14.68;99.03;99711.08;1614164;87;21114;-64
2021/11/28 08:40:33;;;;;;;18.12;5.92;;;;;;;14.67;99.01;99721.49;1642173;83;21792;-66
2021/11/28 08:43:00;;;;;;;25.00;6.08;;;;;;;14.67;99.01;99720.14;1693961;84;21833;-64
2021/11/28 08:45:27;;;;;;;24.70;6.58;;;;;;;14.60;98.92;99727.31;1704867;83;21492;-66
2021/11/28 08:47:54;;;;;;;21.48;6.37;;;;;;;14.53;99.06;99724.67;1702967;83;21577;-65
2021/11/28 08:50:21;;;;;;;18.25;6.50;;;;;;;14.48;99.31;99711.98;1699917;83;21003;-66
2021/11/28 08:52:49;;;;;;;19.25;6.15;;;;;;;14.45;99.53;99714.87;1697043;84;21228;-62
2021/11/28 08:55:17;;;;;;;17.98;6.20;;;;;;;14.44;99.49;99706.40;1702572;83;21154;-61
2021/11/28 08:57:44;;;;;;;24.85;6.60;;;;;;;14.39;99.43;99708.08;1699901;83;21118;-59
2021/11/28 09:00:13;;;;;;;18.77;6.75;;;;;;;14.37;99.47;99702.41;1704189;83;21035;-59
2021/11/28 09:02:39;;;;;;;21.40;6.65;;;;;;;14.33;99.52;99708.01;1697854;83;21034;-61
2021/11/28 09:05:08;;;;;;;19.65;6.35;;;;;;;14.32;99.68;99701.36;1704311;83;21020;-61
2021/11/28 09:07:34;;;;;;;16.37;6.28;;;;;;;14.29;99.53;99706.49;1703636;83;21821;-60
2021/11/28 09:10:04;;;;;;;19.17;6.10;;;;;;;14.24;99.62;99693.78;1706692;83;20972;-60
2021/11/28 09:12:31;;;;;;;20.62;6.72;;;;;;;14.24;99.85;99688.39;1708138;83;21053;-61
2021/11/28 09:14:58;;;;;;;19.82;5.83;;;;;;;14.24;99.96;99685.69;1701200;83;21075;-61
2021/11/28 09:17:25;;;;;;;22.87;7.10;;;;;;;14.24;100.00;99679.45;1703307;83;21075;-61
2021/11/28 09:22:35;;;;;;;21.85;7.53;;;;;;;14.25;100.00;99682.03;1697430;84;21079;-60
2021/11/28 09:24:50;;;;;;;22.27;8.33;;;;;;;14.25;100.00;99676.64;1690721;83;21086;-63
2021/11/28 09:27:21;;;;;;;20.30;6.85;;;;;;;14.24;100.00;99676.26;1700611;83;20988;-62
2021/11/28 09:29:46;;;;;;;18.60;6.67;;;;;;;14.28;100.00;99671.06;1690687;84;21229;-61
2021/11/28 09:32:15;;;;;;;22.80;7.28;;;;;;;14.32;100.00;99669.88;1698776;83;21148;-62
2021/11/28 09:34:43;;;;;;;22.75;6.72;;;;;;;14.39;100.00;99677.55;1692086;83;21023;-62
2021/11/28 09:37:11;;;;;;;19.20;6.97;;;;;;;14.44;100.00;99674.05;1700701;83;21039;-62
2021/11/28 09:39:42;;;;;;;22.87;6.17;;;;;;;14.49;100.00;99673.27;1697823;83;21365;-61
2021/11/28 09:42:09;;;;;;;13.80;5.95;;;;;;;14.51;100.00;99679.41;1703409;84;21096;-61
2021/11/28 09:44:39;;;;;;;17.27;6.90;;;;;;;14.54;100.00;99665.71;1708051;83;21970;-62
2021/11/28 09:47:11;;;;;;;22.70;6.85;;;;;;;14.56;100.00;99663.77;1705906;84;21076;-61
2021/11/28 09:49:41;;;;;;;19.37;6.60;;;;;;;14.55;99.88;99671.95;1698208;83;21123;-61
2021/11/28 09:52:15;;;;;;;22.35;7.12;;;;;;;14.55;99.90;99671.48;1701201;84;21091;-61
2021/11/28 09:54:44;;;;;;;19.42;6.42;;;;;;;14.57;99.74;99664.15;1703735;84;20968;-63
2021/11/28 09:57:17;;;;;;;19.45;6.15;;;;;;;14.56;99.38;99677.26;1696418;83;21028;-63
2021/11/28 09:59:44;;;;;;;28.52;7.03;;;;;;;14.57;99.48;99674.94;1703606;83;21067;-62
2021/11/28 10:02:23;;;;;;;17.73;5.35;;;;;;;14.60;99.31;99673.87;1703061;82;21080;-61
2021/11/28 10:04:51;;;;;;;21.00;6.45;;;;;;;14.59;99.03;99676.20;1700160;83;21083;-61
2021/11/28 10:07:18;;;;;;;23.85;6.47;;;;;;;14.60;99.14;99669.33;1706772;83;21100;-61
2021/11/28 10:09:45;;;;;;;17.48;5.45;;;;;;;14.65;99.09;99670.84;1699088;83;21132;-62
2021/11/28 10:12:22;;;;;;;18.73;5.60;;;;;;;14.67;99.04;99678.33;1704041;83;21479;-64
2021/11/28 10:15:02;;;;;;;17.82;5.67;;;;;;;14.68;98.99;99681.41;1694781;83;21122;-62
2021/11/28 10:17:34;;;;;;;17.80;5.83;;;;;;;14.70;99.10;99675.42;1704833;83;21007;-62
2021/11/28 10:20:04;;;;;;;19.27;5.50;;;;;;;14.74;99.01;99675.14;1704212;83;21072;-62
2021/11/28 10:22:33;;;;;;;18.23;5.12;;;;;;;14.73;98.80;99667.17;1706597;83;21095;-61
2021/11/28 10:25:16;;;;;;;13.68;4.47;;;;;;;14.72;98.99;99669.50;1696983;83;21060;-63
2021/11/28 10:27:46;;;;;;;16.17;4.10;;;;;;;14.71;99.01;99666.42;1699279;83;21052;-63
2021/11/28 10:30:30;;;;;;;15.35;4.05;;;;;;;14.67;99.15;99670.23;1701098;83;21029;-62
2021/11/28 10:33:12;;;;;;;16.90;4.00;;;;;;;14.65;99.32;99662.27;1707334;83;21107;-62
2021/11/28 10:36:02;;;;;;;14.53;3.70;;;;;;;14.61;99.33;99667.01;1708703;83;21576;-62
2021/11/28 10:38:43;;;;;;;12.88;3.83;;;;;;;14.59;99.52;99672.99;1698970;83;21063;-62
2021/11/28 10:41:26;;;;;;;15.72;4.33;;;;;;;14.59;99.60;99676.20;1706912;83;21024;-63
2021/11/28 10:43:55;;;;;;;18.27;4.25;;;;;;;14.56;99.77;99666.47;1698793;83;21049;-61
2021/11/28 10:46:32;;;;;;;21.10;4.55;;;;;;;14.56;100.00;99661.08;1695145;83;21391;-61
2021/11/28 10:49:08;;;;;;;22.58;5.00;;;;;;;14.54;100.00;99644.14;1706904;83;21000;-61
2021/11/28 10:51:40;;;;;;;12.70;4.33;;;;;;;14.54;100.00;99654.92;1706574;83;21512;-62
2021/11/28 10:54:35;;;;;;;15.98;3.77;;;;;;;14.55;100.00;99651.27;1701261;83;21023;-63
2021/11/28 10:57:14;;;;;;;17.87;4.67;;;;;;;14.58;100.00;99646.12;1702697;83;21086;-61
2021/11/28 10:59:54;;;;;;;12.33;4.17;;;;;;;14.60;100.00;99645.05;1704997;83;21064;-61
2021/11/28 11:02:27;;;;;;;17.27;4.47;;;;;;;14.60;100.00;99643.70;1707470;83;21926;-62
2021/11/28 11:04:56;;;;;;;20.37;4.60;;;;;;;14.60;100.00;99650.45;1704419;83;21485;-67
2021/11/28 11:07:25;;;;;;;18.25;4.83;;;;;;;14.63;100.00;99641.29;1728900;82;20956;-62
2021/11/28 11:09:54;;;;;;;17.98;4.45;;;;;;;14.63;100.00;99647.16;1727284;83;21527;-61
2021/11/28 11:12:28;;;;;;;14.45;3.92;;;;;;;14.63;100.00;99633.67;1728585;81;21060;-63
2021/11/28 11:14:57;;;;;;;12.40;3.83;;;;;;;14.65;100.00;99637.12;1725273;81;21087;-63
2021/11/28 11:17:27;;;;;;;17.62;5.00;;;;;;;14.68;100.00;99634.20;1725054;83;21436;-62
2021/11/28 11:19:56;;;;;;;18.45;4.08;;;;;;;14.71;100.00;99641.64;1725722;81;21090;-66
2021/11/28 11:22:30;;;;;;;16.85;4.45;;;;;;;14.70;100.00;99636.30;1728768;81;21037;-66
2021/11/28 11:25:01;;;;;;;16.25;4.37;;;;;;;14.72;100.00;99627.68;1723859;83;21135;-65
2021/11/28 11:27:35;;;;;;;14.85;4.50;;;;;;;14.75;100.00;99636.39;1726847;82;21146;-66
2021/11/28 11:30:21;;;;;;;14.95;3.90;;;;;;;14.77;100.00;99634.95;1725538;82;21137;-66
2021/11/28 11:32:52;;;;;;;;;;;;;;;14.83;100.00;99635.02;1729819;82;21102;-65
2021/11/28 11:35:27;;;;;;;13.95;3.87;;;;;;;14.83;100.00;99630.47;1727408;82;20176;-65
2021/11/28 11:38:00;;;;;;;14.85;5.22;;;;;;;14.84;100.00;99622.75;1726718;82;21138;-66
2021/11/28 11:40:27;;;;;;;17.35;5.30;;;;;;;14.85;100.00;99624.47;1724438;82;21494;-62
2021/11/28 11:42:53;;;;;;;13.70;4.80;;;;;;;14.90;100.00;99629.05;1721956;82;21159;-61
2021/11/28 11:45:23;;;;;;;15.80;4.83;;;;;;;14.97;100.00;99629.98;1723154;81;21559;-62
2021/11/28 11:47:51;;;;;;;12.28;4.75;;;;;;;15.04;99.96;99624.52;1723717;81;21079;-61